Time;durP1;ratioP1;P1;durP2;ratioP2;P2;SDS_P1;SDS_P2;PMS_P1;PMS_P2;Temp;Humidity;BMP_temperature;BMP_pressure;BME280_temperature;BME280_humidity;BME280_pressure;Samples;Min_cycle;Max_cycle;Signal;HPM_P1;HPM_P2
2022/02/10 00:19:01;;;;;;;3.97;2.85;;;4.70;99.90;;;;;;493982;241;28000;-69
2022/02/10 00:20:49;;;;;;;4.05;3.35;;;4.70;99.90;;;;;;492193;241;27480;-69
2022/02/10 00:34:13;;;;;;;3.47;3.17;;;4.70;99.90;;;;;;484606;244;27456;-69
2022/02/10 00:36:12;;;;;;;3.95;3.45;;;4.60;99.90;;;;;;484309;245;27443;-69
2022/02/10 00:38:12;;;;;;;5.15;3.60;;;4.60;99.90;;;;;;484465;245;28083;-69
2022/02/10 00:40:13;;;;;;;5.00;3.12;;;4.60;99.90;;;;;;484593;245;28225;-69
2022/02/10 00:42:14;;;;;;;3.97;2.75;;;4.60;99.90;;;;;;484593;245;27820;-69
2022/02/10 00:44:15;;;;;;;3.20;3.00;;;4.60;99.90;;;;;;484606;245;27886;-69
2022/02/10 00:46:17;;;;;;;3.85;2.85;;;4.60;99.90;;;;;;484617;245;27398;-69
2022/02/10 00:48:19;;;;;;;3.20;2.90;;;4.60;99.90;;;;;;484576;245;27421;-69
2022/02/10 00:50:19;;;;;;;3.72;3.20;;;4.60;99.90;;;;;;484549;245;27404;-68
2022/02/10 00:52:21;;;;;;;3.78;3.08;;;4.70;99.90;;;;;;484596;245;27496;-69
2022/02/10 00:54:26;;;;;;;3.55;2.85;;;4.70;99.90;;;;;;484597;245;27426;-69
2022/02/10 00:56:23;;;;;;;3.30;3.00;;;4.70;99.90;;;;;;484232;245;27380;-69
2022/02/10 00:58:27;;;;;;;2.78;2.58;;;4.70;99.90;;;;;;486882;241;27424;-68
2022/02/10 01:07:04;;;;;;;5.43;3.65;;;4.80;99.90;;;;;;493984;241;27508;-69
2022/02/10 01:11:45;;;;;;;4.50;3.62;;;5.00;99.90;;;;;;494009;237;27525;-69
2022/02/10 01:13:41;;;;;;;3.95;3.35;;;5.00;99.90;;;;;;492195;241;27482;-69
2022/02/10 01:24:32;;;;;;;3.70;3.25;;;5.00;99.90;;;;;;493967;241;27975;-69
2022/02/10 01:31:10;;;;;;;4.68;3.47;;;5.00;99.90;;;;;;494019;241;28031;-69
2022/02/10 01:33:11;;;;;;;3.83;3.42;;;5.00;99.90;;;;;;493881;241;27927;-69
2022/02/10 01:35:14;;;;;;;4.97;3.85;;;5.00;99.90;;;;;;493848;241;27556;-69
2022/02/10 01:37:12;;;;;;;6.47;4.10;;;5.00;99.90;;;;;;493736;241;27633;-69
2022/02/10 01:39:19;;;;;;;5.15;3.53;;;5.00;99.90;;;;;;494039;241;27545;-69
2022/02/10 02:04:06;;;;;;;3.60;3.00;;;4.70;99.90;;;;;;494004;241;27937;-69
2022/02/10 02:06:14;;;;;;;4.05;3.65;;;4.70;99.90;;;;;;493977;241;27974;-69
2022/02/10 02:08:09;;;;;;;4.80;3.65;;;4.70;99.90;;;;;;493360;241;28716;-69
2022/02/10 02:10:09;;;;;;;4.57;3.70;;;4.70;99.90;;;;;;493976;241;27472;-69
2022/02/10 02:12:11;;;;;;;5.12;2.92;;;4.80;99.90;;;;;;494001;241;27562;-69
2022/02/10 02:14:12;;;;;;;7.25;4.03;;;4.70;99.90;;;;;;494025;241;27461;-69
2022/02/10 02:16:13;;;;;;;3.87;3.47;;;4.70;99.90;;;;;;493987;241;27598;-69
2022/02/10 02:18:16;;;;;;;3.40;3.10;;;4.70;99.90;;;;;;493989;241;27568;-69
2022/02/10 02:20:16;;;;;;;5.85;3.67;;;4.70;99.90;;;;;;493929;241;27465;-69
2022/02/10 02:22:19;;;;;;;3.90;3.58;;;4.80;99.90;;;;;;494019;241;27609;-69
2022/02/10 02:24:22;;;;;;;3.75;3.25;;;4.80;99.90;;;;;;493898;241;27589;-69
2022/02/10 02:26:25;;;;;;;3.17;2.80;;;4.70;99.90;;;;;;493961;241;27470;-69
2022/02/10 02:28:23;;;;;;;3.83;3.42;;;4.70;99.90;;;;;;493726;241;27519;-69
2022/02/10 02:30:29;;;;;;;6.97;3.55;;;4.80;99.90;;;;;;494020;241;27486;-69
2022/02/10 02:32:34;;;;;;;3.78;3.30;;;4.80;99.90;;;;;;493650;241;27518;-71
2022/02/10 03:05:02;;;;;;;5.07;3.00;;;4.50;99.90;;;;;;493994;241;27523;-68
2022/02/10 03:08:39;;;;;;;6.80;3.40;;;4.60;99.90;;;;;;494054;241;27601;-68
2022/02/10 03:10:56;;;;;;;4.15;3.20;;;4.60;99.90;;;;;;493387;241;27480;-68
2022/02/10 03:12:36;;;;;;;6.32;3.75;;;4.50;99.90;;;;;;492214;241;27986;-69
2022/02/10 03:14:43;;;;;;;4.82;3.85;;;4.60;99.90;;;;;;493868;241;27918;-68
2022/02/10 03:17:36;;;;;;;3.90;3.40;;;4.50;99.90;;;;;;493357;241;29045;-68
2022/02/10 03:18:55;;;;;;;5.22;3.83;;;4.50;99.90;;;;;;490841;241;27465;-68
2022/02/10 04:00:22;;;;;;;3.15;2.90;;;4.00;99.90;;;;;;494031;241;27528;-69
2022/02/10 04:08:49;;;;;;;3.35;3.08;;;3.90;99.90;;;;;;494016;241;27549;-69
2022/02/10 04:10:47;;;;;;;3.60;3.30;;;3.90;99.90;;;;;;492367;241;27537;-69
2022/02/10 04:13:03;;;;;;;5.03;3.83;;;4.00;99.90;;;;;;492816;241;27468;-69
2022/02/10 04:17:47;;;;;;;3.53;3.20;;;4.10;99.90;;;;;;494034;241;27531;-69
2022/02/10 04:22:13;;;;;;;6.32;3.87;;;4.10;99.90;;;;;;494000;241;27969;-69
2022/02/10 04:26:35;;;;;;;5.50;3.50;;;4.10;99.90;;;;;;494002;241;27482;-68
2022/02/10 04:54:12;;;;;;;6.18;5.07;;;4.20;99.90;;;;;;494001;241;27939;-69
2022/02/10 04:55:54;;;;;;;7.35;4.70;;;4.10;99.90;;;;;;492204;241;29132;-69
2022/02/10 05:06:59;;;;;;;4.40;4.00;;;4.10;99.90;;;;;;494002;241;27489;-68
2022/02/10 05:17:52;;;;;;;6.90;4.45;;;4.40;99.90;;;;;;494010;241;27504;-68
2022/02/10 05:22:16;;;;;;;6.05;4.65;;;4.40;99.90;;;;;;493998;241;27510;-68
2022/02/10 05:35:34;;;;;;;4.97;4.25;;;4.70;99.90;;;;;;493984;241;27469;-69
2022/02/10 05:37:34;;;;;;;5.20;4.25;;;4.70;99.90;;;;;;493675;241;27493;-69
2022/02/10 05:39:34;;;;;;;4.90;4.32;;;4.70;99.90;;;;;;493789;241;27576;-69
2022/02/10 05:44:08;;;;;;;5.57;4.47;;;4.50;99.90;;;;;;493988;241;27608;-68
2022/02/10 05:46:12;;;;;;;8.63;5.62;;;4.50;99.90;;;;;;492812;241;27533;-69
2022/02/10 05:54:56;;;;;;;6.72;5.10;;;4.90;99.90;;;;;;494003;241;27996;-69
2022/02/10 05:59:21;;;;;;;11.75;6.37;;;4.90;99.90;;;;;;493996;241;27522;-69
2022/02/10 06:38:49;;;;;;;6.80;5.35;;;5.10;99.90;;;;;;494007;241;27555;-69
2022/02/10 06:54:03;;;;;;;13.40;6.40;;;5.20;99.90;;;;;;494058;241;27489;-68
2022/02/10 06:56:25;;;;;;;8.45;5.95;;;5.20;99.90;;;;;;493013;241;27933;-69
2022/02/10 07:09:25;;;;;;;9.15;5.80;;;5.30;99.90;;;;;;494048;241;27998;-69
2022/02/10 07:11:24;;;;;;;7.40;5.78;;;5.30;99.90;;;;;;492622;241;27516;-69
2022/02/10 07:14:12;;;;;;;10.02;5.62;;;5.30;99.90;;;;;;492832;241;27482;-69
2022/02/10 07:53:55;;;;;;;7.72;5.97;;;5.50;99.90;;;;;;494016;241;28033;-69
2022/02/10 09:03:21;;;;;;;11.38;7.62;;;5.60;99.90;;;;;;494028;241;27519;-69
2022/02/10 09:05:27;;;;;;;10.40;7.25;;;5.70;99.90;;;;;;493466;241;28064;-69
2022/02/10 10:00:02;;;;;;;15.93;8.25;;;5.50;99.90;;;;;;494022;241;27975;-69
2022/02/10 10:01:59;;;;;;;14.30;7.72;;;5.40;99.90;;;;;;492921;241;27474;-69
2022/02/10 10:03:52;;;;;;;13.20;8.45;;;5.40;99.90;;;;;;493204;241;27562;-71
2022/02/10 10:05:53;;;;;;;16.25;8.98;;;5.40;99.90;;;;;;493973;241;27571;-68
2022/02/10 10:10:17;;;;;;;12.98;7.80;;;5.40;99.90;;;;;;494018;241;27530;-68
2022/02/10 10:14:08;;;;;;;16.37;8.23;;;5.40;99.90;;;;;;494023;241;27651;-68
2022/02/10 10:16:32;;;;;;;12.52;7.95;;;5.40;99.90;;;;;;493697;241;27503;-68
2022/02/10 10:20:38;;;;;;;10.45;7.40;;;5.40;99.90;;;;;;494004;241;27974;-68
2022/02/10 10:22:32;;;;;;;10.15;7.47;;;5.40;99.90;;;;;;492717;241;27584;-68
2022/02/10 10:24:47;;;;;;;12.37;8.15;;;5.40;99.90;;;;;;493434;241;27561;-68
2022/02/10 10:44:31;;;;;;;12.02;8.60;;;5.30;99.90;;;;;;494047;241;27533;-69
2022/02/10 10:44:56;;;;;;;12.35;8.15;;;5.30;99.90;;;;;;494073;241;27933;-68
2022/02/10 10:50:30;;;;;;;12.65;7.45;;;5.30;99.90;;;;;;493994;241;27631;-69
2022/02/10 10:52:40;;;;;;;11.38;7.75;;;5.40;99.90;;;;;;493241;241;27595;-68
2022/02/10 10:56:48;;;;;;;12.57;7.82;;;5.30;99.90;;;;;;494008;241;27474;-69
2022/02/10 10:59:10;;;;;;;12.63;8.05;;;5.40;99.90;;;;;;493815;241;27509;-69
2022/02/10 11:22:15;;;;;;;13.40;8.13;;;5.40;99.90;;;;;;494017;241;27600;-69
2022/02/10 11:36:22;;;;;;;12.25;7.87;;;5.60;99.90;;;;;;494005;241;27619;-69
2022/02/10 11:37:34;;;;;;;9.35;6.43;;;5.50;99.90;;;;;;494039;241;27581;-69
2022/02/10 11:41:54;;;;;;;8.93;6.87;;;5.50;99.90;;;;;;494010;241;27520;-69
2022/02/10 11:46:12;;;;;;;10.18;6.68;;;5.50;99.90;;;;;;494018;241;27983;-69
2022/02/10 11:48:27;;;;;;;10.27;7.65;;;5.50;99.90;;;;;;492274;241;27595;-68
2022/02/10 12:32:34;;;;;;;10.15;6.90;;;5.50;99.90;;;;;;494004;241;27525;-69
2022/02/10 13:24:54;;;;;;;7.80;5.50;;;5.30;99.90;;;;;;493980;241;27524;-68
2022/02/10 14:17:47;;;;;;;9.77;5.85;;;5.20;99.90;;;;;;493814;241;27578;-69
2022/02/10 14:19:57;;;;;;;9.27;6.25;;;5.20;99.90;;;;;;493098;241;27637;-69
2022/02/10 14:25:48;;;;;;;7.97;6.75;;;5.20;99.90;;;;;;493840;241;27517;-69
2022/02/10 14:27:45;;;;;;;10.43;6.57;;;5.20;99.90;;;;;;493633;241;27580;-69
2022/02/10 14:29:46;;;;;;;9.82;6.68;;;5.20;99.90;;;;;;493987;241;27955;-69
2022/02/10 14:31:52;;;;;;;10.50;7.55;;;5.20;99.90;;;;;;493975;241;27943;-69
2022/02/10 14:33:50;;;;;;;13.70;7.93;;;5.20;99.90;;;;;;493621;241;27922;-69
2022/02/10 14:38:14;;;;;;;12.13;7.62;;;5.20;99.90;;;;;;494025;241;27945;-69
2022/02/10 14:40:13;;;;;;;13.25;8.35;;;5.20;99.90;;;;;;492313;241;28008;-69
2022/02/10 14:42:45;;;;;;;12.80;8.90;;;5.20;99.90;;;;;;493275;241;27584;-69
2022/02/10 15:13:08;;;;;;;12.27;7.90;;;5.10;99.90;;;;;;494035;241;27474;-69
2022/02/10 15:20:46;;;;;;;10.85;7.20;;;5.00;99.90;;;;;;493993;241;29086;-69
2022/02/10 16:18:11;;;;;;;16.33;9.10;;;4.80;99.90;;;;;;494010;241;27516;-68
2022/02/10 16:20:17;;;;;;;13.32;8.18;;;4.80;99.90;;;;;;493838;241;27593;-68
2022/02/10 16:24:29;;;;;;;12.90;8.85;;;4.80;99.90;;;;;;494005;241;27544;-68
2022/02/10 16:26:23;;;;;;;13.10;9.00;;;4.80;99.90;;;;;;493173;241;28029;-68
2022/02/10 16:30:24;;;;;;;18.42;9.50;;;4.80;99.90;;;;;;494033;241;27525;-68
2022/02/10 16:32:24;;;;;;;13.68;8.35;;;4.80;99.90;;;;;;493918;241;27483;-68
2022/02/10 16:34:25;;;;;;;18.23;9.15;;;4.80;99.90;;;;;;493993;241;27602;-68
2022/02/10 16:36:30;;;;;;;14.75;9.30;;;4.80;99.90;;;;;;493995;241;27526;-68
2022/02/10 16:38:27;;;;;;;12.57;8.88;;;4.80;99.90;;;;;;493714;241;27561;-68
2022/02/10 16:40:29;;;;;;;14.10;9.18;;;4.80;99.90;;;;;;493991;241;27572;-68
2022/02/10 16:42:30;;;;;;;18.02;11.07;;;4.80;99.90;;;;;;493978;241;27465;-68
2022/02/10 16:44:31;;;;;;;17.30;10.60;;;4.80;99.90;;;;;;494004;241;27934;-68
2022/02/10 16:46:33;;;;;;;15.02;9.65;;;4.80;99.90;;;;;;494006;241;28103;-68
2022/02/10 16:48:34;;;;;;;17.15;10.98;;;4.80;99.90;;;;;;494015;241;27562;-68
2022/02/10 16:50:35;;;;;;;16.70;11.27;;;4.80;99.90;;;;;;494013;241;27631;-68
2022/02/10 16:52:46;;;;;;;14.90;10.68;;;4.80;99.90;;;;;;493989;241;27473;-68
2022/02/10 16:54:43;;;;;;;15.15;9.90;;;4.80;99.90;;;;;;493299;241;27477;-68
2022/02/10 16:56:56;;;;;;;14.63;9.57;;;4.80;99.90;;;;;;493601;241;27596;-68
2022/02/10 16:58:53;;;;;;;16.00;10.88;;;4.80;99.90;;;;;;492498;241;27955;-68
2022/02/10 17:01:10;;;;;;;15.63;9.73;;;4.80;99.90;;;;;;493178;241;27941;-68
2022/02/10 17:14:14;;;;;;;14.40;9.82;;;4.80;99.90;;;;;;493968;241;27513;-68
2022/02/10 17:25:12;;;;;;;19.05;10.30;;;4.80;99.90;;;;;;484589;245;27842;-69
2022/02/10 17:27:11;;;;;;;14.73;10.18;;;4.80;99.90;;;;;;488137;241;27591;-69
2022/02/10 17:29:15;;;;;;;16.83;9.75;;;4.80;99.90;;;;;;493650;241;27526;-69
2022/02/10 17:31:27;;;;;;;13.25;9.50;;;4.80;99.90;;;;;;493436;241;27625;-69
2022/02/10 17:35:47;;;;;;;14.80;9.65;;;4.80;99.90;;;;;;493999;241;27608;-69
2022/02/10 17:42:32;;;;;;;16.95;11.20;;;4.70;99.90;;;;;;493981;241;28066;-68
2022/02/10 17:46:23;;;;;;;15.65;9.52;;;4.70;99.90;;;;;;493949;241;27506;-69
2022/02/10 17:52:56;;;;;;;13.43;9.50;;;4.70;99.90;;;;;;494006;241;27485;-69
2022/02/10 17:54:42;;;;;;;14.65;9.88;;;4.70;99.90;;;;;;492705;241;27506;-68
2022/02/10 17:56:43;;;;;;;12.30;8.38;;;4.70;99.90;;;;;;493969;241;27877;-69
2022/02/10 17:58:45;;;;;;;13.90;9.40;;;4.70;99.90;;;;;;494017;241;27934;-69
2022/02/10 18:00:46;;;;;;;13.27;8.77;;;4.70;99.90;;;;;;494017;241;28093;-69
2022/02/10 18:02:47;;;;;;;16.10;9.45;;;4.70;99.90;;;;;;493964;241;28053;-69
2022/02/10 18:04:49;;;;;;;14.20;9.27;;;4.70;99.90;;;;;;493949;241;27599;-68
2022/02/10 18:06:54;;;;;;;14.27;8.65;;;4.70;99.90;;;;;;494021;241;27603;-68
2022/02/10 18:11:29;;;;;;;12.65;8.73;;;4.70;99.90;;;;;;493991;241;27487;-69
2022/02/10 18:13:24;;;;;;;11.12;7.35;;;4.60;99.90;;;;;;492203;241;27521;-69
2022/02/10 18:15:04;;;;;;;12.52;8.60;;;4.60;99.90;;;;;;492202;241;27462;-69
2022/02/10 18:17:09;;;;;;;14.63;8.90;;;4.60;99.90;;;;;;493480;241;27683;-69
2022/02/10 18:21:29;;;;;;;15.27;9.20;;;4.60;99.90;;;;;;493994;241;27521;-68
2022/02/10 18:23:20;;;;;;;12.27;8.40;;;4.60;99.90;;;;;;492413;241;27489;-68
2022/02/10 18:27:23;;;;;;;13.13;8.93;;;4.60;99.90;;;;;;486508;241;27452;-68
2022/02/10 18:29:33;;;;;;;11.48;8.07;;;4.60;99.90;;;;;;493215;241;27899;-68
2022/02/10 18:33:37;;;;;;;16.75;9.20;;;4.60;99.90;;;;;;493970;241;27513;-69
2022/02/10 19:05:53;;;;;;;10.80;7.22;;;4.50;99.90;;;;;;494023;241;27997;-69
2022/02/10 19:09:49;;;;;;;16.37;9.38;;;4.50;99.90;;;;;;494022;241;27531;-68
2022/02/10 19:11:56;;;;;;;15.27;9.15;;;4.50;99.90;;;;;;493876;241;27462;-69
2022/02/10 19:13:53;;;;;;;12.82;8.23;;;4.50;99.90;;;;;;493344;241;27666;-69
2022/02/10 19:15:54;;;;;;;14.25;8.45;;;4.50;99.90;;;;;;493715;241;27465;-69
2022/02/10 19:17:52;;;;;;;17.10;8.80;;;4.50;99.90;;;;;;493783;241;28081;-69
2022/02/10 19:19:53;;;;;;;15.85;9.32;;;4.50;99.90;;;;;;494014;241;27994;-69
2022/02/10 19:21:55;;;;;;;14.57;8.65;;;4.50;99.90;;;;;;494010;241;29148;-71
2022/02/10 19:23:56;;;;;;;12.50;8.75;;;4.50;99.90;;;;;;494012;241;27501;-68
2022/02/10 19:25:57;;;;;;;13.18;8.93;;;4.50;99.90;;;;;;493977;241;27496;-68
2022/02/10 19:27:58;;;;;;;14.02;8.73;;;4.50;99.90;;;;;;494050;241;27469;-71
2022/02/10 19:30:00;;;;;;;20.60;9.18;;;4.50;99.90;;;;;;494020;241;27517;-68
2022/02/10 19:32:01;;;;;;;16.27;8.70;;;4.50;99.90;;;;;;494033;241;27623;-68
2022/02/10 19:34:02;;;;;;;15.40;8.98;;;4.50;99.90;;;;;;494029;241;27496;-68
2022/02/10 19:36:03;;;;;;;15.18;9.10;;;4.50;99.90;;;;;;494032;241;27518;-68
2022/02/10 19:38:06;;;;;;;17.00;10.30;;;4.50;99.90;;;;;;494020;241;27977;-68
2022/02/10 19:40:06;;;;;;;11.85;8.40;;;4.50;99.90;;;;;;493939;241;29069;-71
2022/02/10 19:42:07;;;;;;;11.50;7.45;;;4.50;99.90;;;;;;493993;241;27488;-70
2022/02/10 19:44:08;;;;;;;17.17;8.85;;;4.50;99.90;;;;;;493977;241;27581;-68
2022/02/10 19:46:11;;;;;;;14.95;8.73;;;4.50;99.90;;;;;;494012;241;27513;-68
2022/02/10 19:48:11;;;;;;;13.93;8.73;;;4.50;99.90;;;;;;493912;241;27478;-71
2022/02/10 19:50:14;;;;;;;12.25;7.93;;;4.50;99.90;;;;;;493988;241;27520;-70
2022/02/10 19:52:15;;;;;;;16.58;8.15;;;4.50;99.90;;;;;;493830;241;27513;-68
2022/02/10 19:54:18;;;;;;;14.68;8.55;;;4.50;99.90;;;;;;493914;241;27461;-68
2022/02/10 19:56:16;;;;;;;11.85;8.35;;;4.50;99.90;;;;;;493756;241;28110;-67
2022/02/10 19:58:23;;;;;;;11.30;7.68;;;4.50;99.90;;;;;;494001;241;27941;-68
2022/02/10 20:00:26;;;;;;;12.88;7.82;;;4.60;99.90;;;;;;493778;241;27474;-68
2022/02/10 20:02:24;;;;;;;13.75;8.73;;;4.60;99.90;;;;;;493632;241;27587;-68
2022/02/10 20:04:24;;;;;;;13.15;8.65;;;4.50;99.90;;;;;;493918;241;27593;-68
2022/02/10 20:06:25;;;;;;;10.88;7.55;;;4.50;99.90;;;;;;494007;241;27553;-68
2022/02/10 20:08:27;;;;;;;11.38;7.00;;;4.60;99.90;;;;;;493978;241;27972;-68
2022/02/10 20:10:28;;;;;;;13.18;7.28;;;4.50;99.90;;;;;;493995;241;28802;-68
2022/02/10 20:12:29;;;;;;;12.25;7.62;;;4.50;99.90;;;;;;494012;241;27960;-68
2022/02/10 20:14:30;;;;;;;9.50;7.28;;;4.50;99.90;;;;;;494029;241;27587;-68
2022/02/10 20:16:32;;;;;;;12.77;8.13;;;4.50;99.90;;;;;;494018;241;27553;-68
2022/02/10 20:18:33;;;;;;;14.55;7.20;;;4.50;99.90;;;;;;493986;241;27517;-68
2022/02/10 20:20:34;;;;;;;9.95;6.95;;;4.50;99.90;;;;;;493995;241;27591;-68
2022/02/10 20:22:39;;;;;;;11.30;6.78;;;4.50;99.90;;;;;;494020;241;27474;-68
2022/02/10 20:24:39;;;;;;;9.50;7.20;;;4.50;99.90;;;;;;493988;237;27462;-68
2022/02/10 20:26:41;;;;;;;10.07;6.95;;;4.50;99.90;;;;;;494022;241;27529;-69
2022/02/10 20:28:42;;;;;;;10.57;7.87;;;4.60;99.90;;;;;;493962;241;27550;-68
2022/02/10 20:30:43;;;;;;;13.05;8.00;;;4.60;99.90;;;;;;493938;241;27500;-68
2022/02/10 20:32:44;;;;;;;12.07;8.02;;;4.60;99.90;;;;;;494029;241;27600;-68
2022/02/10 20:34:46;;;;;;;13.95;8.70;;;4.60;99.90;;;;;;494012;241;27493;-68
2022/02/10 20:36:47;;;;;;;11.10;7.95;;;4.60;99.90;;;;;;494018;241;27637;-68
2022/02/10 20:38:51;;;;;;;13.07;7.90;;;4.60;99.90;;;;;;493974;237;27953;-68
2022/02/10 20:40:58;;;;;;;13.65;7.93;;;4.60;99.90;;;;;;493733;241;27944;-68
2022/02/10 20:42:51;;;;;;;14.02;7.90;;;4.60;99.90;;;;;;493313;241;27940;-68
2022/02/10 20:44:55;;;;;;;15.68;8.48;;;4.60;99.90;;;;;;494006;241;27546;-68
2022/02/10 20:46:53;;;;;;;14.10;7.68;;;4.50;99.90;;;;;;493752;241;27504;-68
2022/02/10 20:48:55;;;;;;;11.20;7.80;;;4.50;99.90;;;;;;493980;237;27513;-68
2022/02/10 20:50:57;;;;;;;13.30;8.15;;;4.50;99.90;;;;;;494031;241;27578;-68
2022/02/10 20:52:57;;;;;;;13.48;8.90;;;4.50;99.90;;;;;;493918;241;27549;-68
2022/02/10 20:54:59;;;;;;;10.85;7.05;;;4.50;99.90;;;;;;493998;241;27457;-68
2022/02/10 20:56:59;;;;;;;14.68;9.18;;;4.40;99.90;;;;;;493942;241;27514;-70
2022/02/10 20:59:08;;;;;;;12.37;8.52;;;4.40;99.90;;;;;;493992;241;28699;-70
2022/02/10 21:01:03;;;;;;;14.73;8.50;;;4.40;99.90;;;;;;493435;241;27910;-70
2022/02/10 21:03:03;;;;;;;13.55;8.25;;;4.40;99.90;;;;;;493928;241;27529;-70
2022/02/10 21:05:20;;;;;;;13.38;8.73;;;4.40;99.90;;;;;;493967;241;27593;-68
2022/02/10 21:07:21;;;;;;;12.80;8.05;;;4.40;99.90;;;;;;492650;241;27588;-68
2022/02/10 21:09:30;;;;;;;11.73;7.65;;;4.30;99.90;;;;;;493396;241;28026;-70
2022/02/10 21:11:17;;;;;;;9.25;7.22;;;4.30;99.90;;;;;;492756;237;27561;-70
2022/02/10 21:13:18;;;;;;;10.15;6.57;;;4.30;99.90;;;;;;493983;241;27478;-68
2022/02/10 21:15:26;;;;;;;11.27;6.75;;;4.30;99.90;;;;;;494020;241;27517;-68
2022/02/10 21:17:25;;;;;;;15.55;8.07;;;4.40;99.90;;;;;;493434;241;27560;-70
2022/02/10 21:19:24;;;;;;;9.55;6.78;;;4.40;99.90;;;;;;493637;241;27604;-68
2022/02/10 21:21:25;;;;;;;10.60;6.90;;;4.30;99.90;;;;;;493921;241;27517;-68
2022/02/10 21:23:33;;;;;;;7.22;5.93;;;4.30;99.90;;;;;;493820;241;27515;-68
2022/02/10 21:25:33;;;;;;;10.60;7.28;;;4.30;99.90;;;;;;493529;241;27481;-68
2022/02/10 21:27:42;;;;;;;10.70;8.00;;;4.30;99.90;;;;;;493631;241;27517;-70
2022/02/10 21:29:31;;;;;;;10.90;7.37;;;4.30;99.90;;;;;;492979;241;28776;-70
2022/02/10 21:31:42;;;;;;;9.55;6.72;;;4.30;99.90;;;;;;493992;241;29031;-68
2022/02/10 21:38:29;;;;;;;9.48;7.12;;;4.20;99.90;;;;;;494003;241;29064;-67
2022/02/10 21:57:33;;;;;;;10.68;7.70;;;4.10;99.90;;;;;;494036;241;27473;-70
2022/02/10 22:11:15;;;;;;;10.23;5.82;;;4.10;99.90;;;;;;489317;237;27494;-70
2022/02/10 22:18:00;;;;;;;11.55;7.50;;;4.10;99.90;;;;;;494039;241;29127;-70
2022/02/10 22:19:37;;;;;;;10.98;7.60;;;4.20;99.90;;;;;;492295;241;27494;-70
2022/02/10 22:21:33;;;;;;;12.40;7.70;;;4.20;99.90;;;;;;493270;241;27470;-70
2022/02/10 22:23:34;;;;;;;13.82;8.23;;;4.20;99.90;;;;;;493715;241;27538;-70
2022/02/10 22:25:33;;;;;;;10.23;7.07;;;4.20;99.90;;;;;;493821;241;27583;-70
2022/02/10 22:27:38;;;;;;;9.15;6.07;;;4.20;99.90;;;;;;493976;241;27477;-70
2022/02/10 22:29:46;;;;;;;10.98;7.28;;;4.20;99.90;;;;;;493640;241;27609;-70
2022/02/10 22:33:56;;;;;;;11.38;6.95;;;4.20;99.90;;;;;;494028;237;27497;-70
2022/02/10 22:35:45;;;;;;;8.70;6.65;;;4.20;99.90;;;;;;492942;241;27520;-70
2022/02/10 22:37:48;;;;;;;8.77;5.93;;;4.20;99.90;;;;;;494006;241;27926;-70
2022/02/10 22:39:49;;;;;;;9.13;5.95;;;4.20;99.90;;;;;;493842;241;28083;-70
2022/02/10 22:41:48;;;;;;;8.10;6.10;;;4.20;99.90;;;;;;493859;241;28170;-71
2022/02/10 22:43:50;;;;;;;8.60;6.22;;;4.20;99.90;;;;;;494027;241;27930;-70
2022/02/10 22:45:51;;;;;;;8.80;6.10;;;4.20;99.90;;;;;;494027;241;27624;-70
2022/02/10 22:47:52;;;;;;;7.97;5.87;;;4.20;99.90;;;;;;494013;241;27572;-70
2022/02/10 22:49:53;;;;;;;7.82;5.78;;;4.10;99.90;;;;;;493972;241;27529;-71
2022/02/10 22:51:55;;;;;;;6.78;6.00;;;4.20;99.90;;;;;;494021;241;27601;-70
2022/02/10 22:53:56;;;;;;;9.65;6.85;;;4.20;99.90;;;;;;494013;241;27482;-70
2022/02/10 22:55:57;;;;;;;8.50;6.40;;;4.20;99.90;;;;;;493999;241;27522;-70
2022/02/10 22:57:58;;;;;;;8.80;6.55;;;4.10;99.90;;;;;;493990;241;27481;-70
2022/02/10 23:00:04;;;;;;;12.43;7.18;;;4.20;99.90;;;;;;494001;241;27541;-70
2022/02/10 23:02:01;;;;;;;10.70;6.68;;;4.20;99.90;;;;;;493707;241;27584;-70
2022/02/10 23:04:02;;;;;;;7.32;5.95;;;4.20;99.90;;;;;;494020;237;27907;-70
2022/02/10 23:06:04;;;;;;;8.20;5.53;;;4.10;99.90;;;;;;493967;241;27998;-70
2022/02/10 23:08:05;;;;;;;8.90;6.50;;;4.10;99.90;;;;;;493967;241;29068;-70
2022/02/10 23:12:19;;;;;;;7.57;6.28;;;4.10;99.90;;;;;;493969;241;27965;-70
2022/02/10 23:14:21;;;;;;;12.05;6.30;;;4.10;99.90;;;;;;493975;241;27906;-70
2022/02/10 23:16:22;;;;;;;7.85;6.18;;;4.10;99.90;;;;;;493954;241;28090;-70
2022/02/10 23:18:23;;;;;;;9.35;6.47;;;4.10;99.90;;;;;;494011;241;27967;-70
2022/02/10 23:20:25;;;;;;;8.60;6.35;;;4.10;99.90;;;;;;493995;241;27521;-70
2022/02/10 23:22:26;;;;;;;8.00;6.12;;;4.10;99.90;;;;;;493984;241;27516;-70
2022/02/10 23:24:27;;;;;;;9.25;6.20;;;4.10;99.90;;;;;;493972;241;27488;-70
2022/02/10 23:26:28;;;;;;;8.50;6.62;;;4.10;99.90;;;;;;493990;241;27514;-70
2022/02/10 23:28:29;;;;;;;12.10;6.97;;;4.10;99.90;;;;;;494011;241;27504;-70
2022/02/10 23:30:31;;;;;;;9.25;6.62;;;4.10;99.90;;;;;;493968;241;27573;-70
2022/02/10 23:32:32;;;;;;;8.23;5.68;;;4.00;99.90;;;;;;494008;241;27493;-70
2022/02/10 23:34:33;;;;;;;9.63;6.70;;;4.10;99.90;;;;;;493994;237;27557;-71
2022/02/10 23:36:53;;;;;;;9.38;6.72;;;4.10;99.90;;;;;;494006;237;27629;-70
2022/02/10 23:43:12;;;;;;;8.50;5.90;;;4.00;99.90;;;;;;494022;241;27512;-70
2022/02/10 23:45:19;;;;;;;6.62;5.78;;;4.00;99.90;;;;;;494038;241;27484;-70
2022/02/10 23:47:20;;;;;;;8.88;6.18;;;4.00;99.90;;;;;;493552;241;27894;-70
2022/02/10 23:49:18;;;;;;;7.05;5.45;;;4.00;99.90;;;;;;493530;241;27468;-70
2022/02/10 23:51:18;;;;;;;11.65;6.20;;;4.00;99.90;;;;;;493817;241;27500;-70
2022/02/10 23:53:18;;;;;;;7.37;5.50;;;4.00;99.90;;;;;;493965;241;27592;-70
2022/02/10 23:55:27;;;;;;;7.68;5.60;;;4.00;99.90;;;;;;494005;241;27924;-70
2022/02/10 23:57:33;;;;;;;6.10;5.50;;;4.00;99.90;;;;;;493368;241;27974;-70
2022/02/10 23:59:35;;;;;;;6.55;5.00;;;4.00;99.90;;;;;;492981;241;27918;-70
